Terminal Aerodrome Forecast
Issued by NWS

Home | Current Version | Previous Version | Text Only | Print | Product List | Glossary Off
Versions: 1 2 3 4 5 6 7 8 9 10 11 12 13

000
FTUS43 KBIS 232331
TAFJMS
TAF
KJMS 232331Z 2400/2424 13006KT P6SM FEW200
     FM241200 09006KT P6SM FEW025 SCT050
     FM241400 10008KT P6SM BKN008 BKN030
     FM241700 11010KT P6SM FEW050 SCT130=

USA.gov is the U.S. government's official web portal to all federal, state and local government web resources and services.